createdAt,value
2018-05-08T00:01:07.838Z,50.98
2018-05-08T00:03:35.297Z,51.02
2018-05-08T00:06:02.770Z,50.49
2018-05-08T00:08:30.219Z,49.97
2018-05-08T00:10:57.696Z,50.41
2018-05-08T00:13:25.155Z,49.25
2018-05-08T00:15:52.621Z,50.44
2018-05-08T00:18:20.101Z,49.37
2018-05-08T00:20:47.551Z,49.33
2018-05-08T00:23:15.277Z,49.67
2018-05-08T00:25:42.741Z,49.83
2018-05-08T00:28:10.205Z,49.26
2018-05-08T00:30:37.692Z,49.34
2018-05-08T00:33:05.150Z,49.81
2018-05-08T00:35:32.619Z,50.17
2018-05-08T00:38:00.082Z,50.11
2018-05-08T00:40:27.541Z,50.23
2018-05-08T00:42:55.025Z,49.94
2018-05-08T00:45:22.756Z,50.81
2018-05-08T00:47:50.228Z,50.64
2018-05-08T00:50:17.686Z,50.56
2018-05-08T00:52:45.160Z,49.88
2018-05-08T00:55:12.621Z,50.54
2018-05-08T00:57:40.081Z,50.06
2018-05-08T01:00:07.561Z,50.67
2018-05-08T01:02:35.011Z,50.57
2018-05-08T01:05:02.603Z,50.90
2018-05-08T01:07:29.976Z,50.85
2018-05-08T01:09:57.439Z,51.00
2018-05-08T01:12:24.895Z,51.76
2018-05-08T01:14:52.343Z,51.37
2018-05-08T01:17:19.820Z,51.56
2018-05-08T01:19:47.275Z,50.83
2018-05-08T01:22:14.756Z,50.72
2018-05-08T01:24:42.216Z,51.46
2018-05-08T01:27:09.682Z,51.35
2018-05-08T01:29:37.157Z,51.64
2018-05-08T01:32:04.616Z,50.90
2018-05-08T01:34:32.128Z,50.80
2018-05-08T01:36:59.585Z,51.88
2018-05-08T01:39:27.053Z,51.56
2018-05-08T01:41:54.529Z,51.73
2018-05-08T01:44:21.992Z,51.96
2018-05-08T01:46:49.478Z,52.15
2018-05-08T01:49:16.936Z,52.68
2018-05-08T01:51:44.399Z,52.70
2018-05-08T01:54:11.876Z,52.13
2018-05-08T01:56:39.331Z,52.04
2018-05-08T01:59:06.808Z,51.74
2018-05-08T02:01:34.269Z,51.80
2018-05-08T02:04:01.728Z,51.84
2018-05-08T02:06:29.228Z,51.60
2018-05-08T02:08:56.680Z,51.76
2018-05-08T02:11:24.164Z,52.01
2018-05-08T02:13:51.623Z,51.95
2018-05-08T02:16:19.084Z,52.50
2018-05-08T02:18:46.564Z,53.15
2018-05-08T02:21:14.020Z,52.47
2018-05-08T02:23:41.507Z,53.97
2018-05-08T02:26:08.976Z,53.35
2018-05-08T02:28:37.113Z,53.35
2018-05-08T02:31:04.589Z,54.15
2018-05-08T02:33:32.039Z,54.14
2018-05-08T02:35:59.512Z,53.93
2018-05-08T02:38:26.965Z,54.21
2018-05-08T02:40:54.428Z,53.98
2018-05-08T02:43:21.895Z,54.31
2018-05-08T02:45:49.352Z,54.37
2018-05-08T02:48:16.832Z,54.50
2018-05-08T02:50:44.284Z,55.04
2018-05-08T02:53:11.768Z,55.51
2018-05-08T02:55:39.245Z,55.83
2018-05-08T02:58:06.704Z,55.86
2018-05-08T03:00:34.187Z,56.45
2018-05-08T03:03:01.641Z,59.07
2018-05-08T03:05:29.127Z,59.53
2018-05-08T03:07:57.497Z,58.97
2018-05-08T03:10:24.949Z,61.91
2018-05-08T03:12:52.428Z,59.90
2018-05-08T03:15:19.888Z,59.21
2018-05-08T03:17:47.353Z,58.14
2018-05-08T03:20:14.852Z,59.60
2018-05-08T03:22:42.330Z,56.93
2018-05-08T03:25:09.789Z,59.43
2018-05-08T03:27:37.244Z,56.81
2018-05-08T03:30:04.716Z,59.33
2018-05-08T03:32:32.171Z,59.29
2018-05-08T03:34:59.644Z,59.13
2018-05-08T03:37:27.108Z,57.96
2018-05-08T03:39:54.595Z,56.86
2018-05-08T03:42:22.181Z,58.47
2018-05-08T03:44:49.683Z,60.09
2018-05-08T03:47:17.162Z,59.41
2018-05-08T03:49:44.619Z,61.66
2018-05-08T03:52:12.083Z,62.71
2018-05-08T03:54:39.541Z,62.56
2018-05-08T03:57:06.987Z,62.84
2018-05-08T03:59:34.459Z,63.06
2018-05-08T04:02:13.692Z,62.57
2018-05-08T04:04:52.795Z,63.10
2018-05-08T04:07:32.005Z,62.31
2018-05-08T04:09:59.490Z,62.48
2018-05-08T04:12:26.960Z,62.49
2018-05-08T04:14:54.432Z,62.46
2018-05-08T04:17:21.893Z,65.66
2018-05-08T04:19:49.339Z,65.04
2018-05-08T04:22:16.812Z,64.31
2018-05-08T04:24:44.264Z,65.29
2018-05-08T04:27:11.737Z,64.22
2018-05-08T04:29:39.195Z,66.74
2018-05-08T04:32:06.679Z,64.50
2018-05-08T04:34:34.138Z,64.49
2018-05-08T04:37:01.725Z,65.82
2018-05-08T04:39:29.135Z,65.04
2018-05-08T04:41:56.589Z,63.78
2018-05-08T04:44:24.059Z,63.22
2018-05-08T04:46:51.520Z,63.54
2018-05-08T04:49:19.013Z,63.56
2018-05-08T04:51:46.468Z,62.62
2018-05-08T04:54:13.928Z,61.67
2018-05-08T04:56:41.415Z,62.75
2018-05-08T04:59:08.877Z,63.47
2018-05-08T05:01:36.352Z,64.14
2018-05-08T05:04:03.804Z,62.14
2018-05-08T05:06:31.257Z,64.28
2018-05-08T05:08:58.736Z,64.59
2018-05-08T05:11:26.191Z,64.94
2018-05-08T05:13:53.698Z,65.84
2018-05-08T05:16:21.158Z,65.74
2018-05-08T05:18:48.613Z,64.40
2018-05-08T05:21:16.092Z,63.34
2018-05-08T05:23:43.556Z,64.21
2018-05-08T05:26:11.751Z,64.05
2018-05-08T05:28:39.213Z,64.36
2018-05-08T05:31:06.676Z,64.20
2018-05-08T05:33:34.153Z,63.77
2018-05-08T05:36:01.614Z,64.77
2018-05-08T05:38:29.093Z,64.66
2018-05-08T05:40:56.552Z,64.60
2018-05-08T05:43:24.010Z,62.87
2018-05-08T05:45:51.493Z,61.91
2018-05-08T05:48:18.948Z,62.85
2018-05-08T05:50:46.433Z,60.80
2018-05-08T05:53:13.946Z,62.17
2018-05-08T05:55:41.359Z,62.61
2018-05-08T05:58:08.832Z,62.58
2018-05-08T06:00:36.407Z,60.57
2018-05-08T06:03:03.892Z,59.49
2018-05-08T06:05:31.434Z,58.80
2018-05-08T06:07:58.976Z,58.22
2018-05-08T06:10:26.427Z,58.65
2018-05-08T06:12:53.883Z,58.63
2018-05-08T06:15:21.354Z,56.69
2018-05-08T06:17:48.818Z,57.94
2018-05-08T06:20:16.361Z,57.93
2018-05-08T06:22:43.796Z,59.31
2018-05-08T06:25:11.248Z,58.40
2018-05-08T06:27:39.300Z,60.11
2018-05-08T06:30:06.762Z,58.89
2018-05-08T06:32:34.248Z,58.05
2018-05-08T06:35:01.706Z,57.84
2018-05-08T06:37:29.175Z,57.09
2018-05-08T06:39:56.666Z,56.95
2018-05-08T06:42:24.109Z,57.84
2018-05-08T06:44:51.592Z,56.27
2018-05-08T06:47:19.049Z,57.35
2018-05-08T06:49:46.535Z,56.26
2018-05-08T06:52:13.995Z,55.92
2018-05-08T06:54:41.490Z,56.15
2018-05-08T06:57:08.955Z,56.90
2018-05-08T06:59:36.433Z,54.83
2018-05-08T07:02:03.907Z,55.24
2018-05-08T07:04:31.359Z,54.86
2018-05-08T07:06:58.833Z,54.42
2018-05-08T07:09:26.295Z,54.67
2018-05-08T07:11:53.764Z,55.29
2018-05-08T07:14:21.249Z,55.66
2018-05-08T07:16:48.716Z,55.25
2018-05-08T07:19:16.191Z,53.48
2018-05-08T07:21:43.660Z,53.48
2018-05-08T07:24:11.119Z,55.33
2018-05-08T07:26:38.588Z,54.33
2018-05-08T07:29:06.041Z,54.73
2018-05-08T07:31:33.728Z,55.05
2018-05-08T07:34:01.177Z,53.58
2018-05-08T07:36:28.642Z,54.08
2018-05-08T07:38:56.127Z,52.22
2018-05-08T07:41:23.590Z,52.79
2018-05-08T07:43:51.315Z,52.56
2018-05-08T07:46:18.768Z,53.31
2018-05-08T07:48:46.224Z,51.26
2018-05-08T07:51:13.703Z,51.37
2018-05-08T07:53:41.157Z,51.70
2018-05-08T07:56:08.632Z,50.99
2018-05-08T07:58:36.096Z,51.89
2018-05-08T08:01:03.549Z,50.37
2018-05-08T08:03:31.029Z,51.72
2018-05-08T08:05:58.480Z,51.64
2018-05-08T08:08:25.960Z,51.36
2018-05-08T08:10:53.427Z,50.87
2018-05-08T08:13:20.966Z,49.63
2018-05-08T08:15:48.385Z,50.87
2018-05-08T08:18:15.857Z,49.84
2018-05-08T08:20:43.332Z,49.52
2018-05-08T08:23:10.797Z,48.34
2018-05-08T08:25:38.256Z,49.03
2018-05-08T08:28:05.722Z,49.94
2018-05-08T08:30:33.180Z,49.35
2018-05-08T08:33:00.676Z,49.02
2018-05-08T08:35:28.143Z,48.55
2018-05-08T08:37:56.537Z,47.28
2018-05-08T08:40:24.115Z,48.42
2018-05-08T08:42:51.572Z,47.72
2018-05-08T08:45:19.055Z,48.33
2018-05-08T08:47:46.533Z,47.45
2018-05-08T08:50:14.085Z,47.46
2018-05-08T08:52:41.499Z,46.93
2018-05-08T08:55:08.976Z,46.97
2018-05-08T08:57:36.465Z,45.52
2018-05-08T09:00:03.995Z,47.15
2018-05-08T09:02:31.483Z,44.80
2018-05-08T09:05:00.011Z,43.97
2018-05-08T09:07:27.476Z,45.17
2018-05-08T09:09:54.949Z,46.49
2018-05-08T09:12:22.404Z,42.70
2018-05-08T09:14:49.890Z,43.91
2018-05-08T09:17:17.350Z,44.74
2018-05-08T09:19:44.884Z,42.04
2018-05-08T09:22:12.290Z,43.30
2018-05-08T09:24:39.748Z,44.44
2018-05-08T09:27:07.215Z,41.74
2018-05-08T09:29:34.665Z,43.14
2018-05-08T09:32:02.131Z,43.42
2018-05-08T09:34:29.608Z,41.83
2018-05-08T09:36:57.068Z,41.99
2018-05-08T09:39:24.559Z,44.13
2018-05-08T09:41:52.022Z,44.65
2018-05-08T09:44:19.505Z,42.83
2018-05-08T09:46:46.977Z,41.26
2018-05-08T09:49:14.432Z,41.02
2018-05-08T09:51:41.908Z,40.28
2018-05-08T09:54:09.373Z,38.27
2018-05-08T09:56:36.857Z,41.48
2018-05-08T09:59:04.334Z,40.38
2018-05-08T10:01:31.803Z,42.61
2018-05-08T10:03:59.299Z,40.75
2018-05-08T10:06:27.348Z,40.32
2018-05-08T10:08:54.811Z,40.92
2018-05-08T10:11:22.293Z,39.82
2018-05-08T10:13:49.749Z,39.68
2018-05-08T10:16:17.244Z,39.06
2018-05-08T10:18:44.716Z,39.98
2018-05-08T10:21:12.195Z,38.67
2018-05-08T10:23:39.653Z,37.34
2018-05-08T10:26:07.114Z,37.61
2018-05-08T10:28:34.850Z,37.93
2018-05-08T10:31:02.320Z,39.77
2018-05-08T10:33:29.788Z,37.23
2018-05-08T10:35:57.241Z,39.05
2018-05-08T10:38:24.734Z,36.38
2018-05-08T10:40:52.187Z,38.47
2018-05-08T10:43:19.644Z,37.23
2018-05-08T10:45:47.129Z,37.49
2018-05-08T10:48:14.579Z,39.71
2018-05-08T10:50:42.069Z,38.88
2018-05-08T10:53:09.529Z,35.97
2018-05-08T10:55:37.009Z,37.42
2018-05-08T10:58:04.489Z,35.00
2018-05-08T11:00:31.959Z,37.57
2018-05-08T11:02:59.433Z,37.45
2018-05-08T11:05:26.895Z,37.29
2018-05-08T11:07:54.343Z,36.17
2018-05-08T11:10:21.811Z,35.33
2018-05-08T11:12:49.262Z,37.58
2018-05-08T11:15:16.936Z,36.30
2018-05-08T11:17:44.396Z,34.27
2018-05-08T11:20:11.889Z,34.79
2018-05-08T11:22:39.363Z,35.00
2018-05-08T11:25:06.828Z,34.11
2018-05-08T11:27:34.321Z,35.57
2018-05-08T11:30:01.773Z,35.23
2018-05-08T11:32:29.250Z,37.02
2018-05-08T11:34:56.723Z,33.00
2018-05-08T11:37:24.176Z,32.32
2018-05-08T11:39:51.655Z,31.39
2018-05-08T11:42:19.702Z,32.05
2018-05-08T11:44:47.247Z,33.86
2018-05-08T11:47:14.664Z,34.26
2018-05-08T11:49:42.117Z,36.50
2018-05-08T11:52:09.584Z,38.35
2018-05-08T11:54:37.050Z,35.74
2018-05-08T11:57:04.527Z,32.24
2018-05-08T11:59:31.995Z,31.04
2018-05-08T12:01:59.452Z,32.62
2018-05-08T12:04:26.927Z,31.55
2018-05-08T12:06:54.407Z,31.87
2018-05-08T12:09:21.892Z,35.14
2018-05-08T12:11:49.345Z,36.41
2018-05-08T12:14:16.799Z,37.51
2018-05-08T12:16:44.273Z,37.14
2018-05-08T12:19:11.744Z,39.86
2018-05-08T12:21:39.535Z,40.22
2018-05-08T12:24:07.002Z,42.05
2018-05-08T12:26:34.469Z,42.15
2018-05-08T12:29:01.943Z,42.10
2018-05-08T12:31:29.425Z,42.73
2018-05-08T12:33:56.907Z,42.15
2018-05-08T12:36:24.368Z,41.15
2018-05-08T12:38:51.829Z,40.42
2018-05-08T12:41:19.316Z,41.05
2018-05-08T12:43:46.802Z,41.04
2018-05-08T12:46:14.524Z,40.80
2018-05-08T12:48:41.976Z,40.55
2018-05-08T12:51:09.448Z,41.94
2018-05-08T12:53:36.909Z,40.13
2018-05-08T12:56:04.405Z,41.85
2018-05-08T12:58:31.875Z,42.19
2018-05-08T13:00:59.327Z,42.72
2018-05-08T13:03:26.804Z,41.75
2018-05-08T13:05:54.271Z,42.91
2018-05-08T13:08:21.740Z,42.29
2018-05-08T13:10:49.196Z,42.52
2018-05-08T13:13:16.682Z,42.26
2018-05-08T13:15:44.173Z,43.38
2018-05-08T13:18:11.629Z,42.26
2018-05-08T13:20:39.124Z,39.81
2018-05-08T13:23:06.596Z,39.46
2018-05-08T13:25:34.056Z,38.15
2018-05-08T13:28:01.536Z,36.08
2018-05-08T13:30:29.004Z,35.66
2018-05-08T13:32:56.479Z,35.23
2018-05-08T13:35:23.940Z,34.82
2018-05-08T13:37:51.400Z,34.96
2018-05-08T13:40:18.940Z,36.06
2018-05-08T13:42:46.669Z,38.01
2018-05-08T13:45:14.156Z,40.28
2018-05-08T13:47:41.607Z,38.12
2018-05-08T13:50:09.099Z,39.84
2018-05-08T13:52:36.560Z,37.27
2018-05-08T13:55:04.075Z,38.70
2018-05-08T13:57:31.542Z,39.33
2018-05-08T13:59:59.036Z,38.94
2018-05-08T14:02:26.527Z,37.54
2018-05-08T14:04:53.988Z,35.97
2018-05-08T14:07:21.449Z,38.95
2018-05-08T14:09:48.930Z,39.62
2018-05-08T14:12:16.394Z,38.47
2018-05-08T14:14:43.872Z,35.90
2018-05-08T14:17:11.333Z,37.75
2018-05-08T14:19:38.811Z,38.15
2018-05-08T14:22:06.286Z,34.44
2018-05-08T14:24:33.742Z,36.31
2018-05-08T14:27:01.237Z,36.00
2018-05-08T14:29:28.691Z,35.72
2018-05-08T14:31:56.171Z,36.37
2018-05-08T14:34:23.653Z,37.01
2018-05-08T14:36:51.112Z,37.38
2018-05-08T14:39:18.591Z,36.79
2018-05-08T14:41:46.041Z,37.20
2018-05-08T14:44:13.504Z,37.89
2018-05-08T14:46:40.980Z,35.19
2018-05-08T14:49:08.456Z,35.59
2018-05-08T14:51:35.931Z,35.47
2018-05-08T14:54:04.298Z,35.91
2018-05-08T14:56:31.752Z,35.11
2018-05-08T14:58:59.240Z,34.05
2018-05-08T15:01:26.698Z,35.77
2018-05-08T15:03:54.267Z,36.80
2018-05-08T15:06:21.671Z,37.34
2018-05-08T15:08:49.139Z,36.22
2018-05-08T15:11:16.624Z,34.93
2018-05-08T15:13:44.081Z,35.46
2018-05-08T15:16:11.552Z,35.66
2018-05-08T15:18:39.011Z,37.12
2018-05-08T15:21:06.506Z,34.70
2018-05-08T15:23:33.984Z,36.94
2018-05-08T15:26:01.448Z,37.27
2018-05-08T15:28:28.960Z,36.91
2018-05-08T15:30:56.415Z,37.59
2018-05-08T15:33:24.207Z,37.42
2018-05-08T15:35:51.660Z,37.16
2018-05-08T15:38:19.132Z,36.83
2018-05-08T15:40:46.595Z,37.68
2018-05-08T15:43:14.062Z,36.79
2018-05-08T15:45:41.532Z,36.76
2018-05-08T15:48:09.014Z,36.15
2018-05-08T15:50:36.504Z,35.43
2018-05-08T15:53:03.967Z,34.52
2018-05-08T15:55:31.428Z,36.56
2018-05-08T15:57:58.896Z,35.99
2018-05-08T16:00:26.353Z,37.69
2018-05-08T16:02:53.832Z,37.39
2018-05-08T16:05:21.284Z,38.22
2018-05-08T16:07:48.767Z,38.40
2018-05-08T16:10:16.383Z,39.03
2018-05-08T16:12:43.848Z,39.91
2018-05-08T16:15:11.333Z,39.81
2018-05-08T16:17:38.808Z,39.91
2018-05-08T16:20:06.285Z,40.06
2018-05-08T16:22:33.956Z,40.14
2018-05-08T16:25:01.747Z,41.16
2018-05-08T16:27:29.203Z,41.27
2018-05-08T16:29:57.116Z,41.36
2018-05-08T16:32:24.583Z,41.88
2018-05-08T16:34:52.064Z,42.19
2018-05-08T16:37:19.618Z,42.27
2018-05-08T16:39:47.097Z,42.51
2018-05-08T16:42:14.552Z,43.26
2018-05-08T16:44:42.052Z,42.96
2018-05-08T16:47:09.955Z,43.86
2018-05-08T16:49:37.415Z,44.24
2018-05-08T16:52:04.880Z,44.27
2018-05-08T16:54:32.334Z,44.13
2018-05-08T16:56:59.819Z,44.40
2018-05-08T16:59:27.274Z,44.88
2018-05-08T17:01:54.755Z,44.05
2018-05-08T17:04:22.207Z,44.88
2018-05-08T17:06:49.660Z,44.46
2018-05-08T17:09:17.132Z,44.17
2018-05-08T17:11:44.592Z,43.15
2018-05-08T17:14:12.106Z,43.14
2018-05-08T17:16:39.572Z,42.93
2018-05-08T17:19:07.132Z,43.00
2018-05-08T17:21:34.514Z,43.44
2018-05-08T17:24:01.989Z,43.58
2018-05-08T17:26:29.474Z,43.44
2018-05-08T17:28:56.938Z,43.60
2018-05-08T17:31:24.432Z,43.69
2018-05-08T17:33:51.935Z,43.60
2018-05-08T17:36:19.412Z,44.07
2018-05-08T17:38:46.879Z,45.17
2018-05-08T17:41:14.339Z,45.26
2018-05-08T17:43:41.877Z,45.19
2018-05-08T17:46:09.332Z,44.87
2018-05-08T17:48:36.948Z,45.13
2018-05-08T17:51:04.414Z,44.37
2018-05-08T17:53:31.893Z,44.47
2018-05-08T17:55:59.366Z,44.71
2018-05-08T17:58:26.833Z,44.74
2018-05-08T18:00:54.298Z,44.59
2018-05-08T18:03:21.776Z,46.08
2018-05-08T18:05:49.242Z,45.02
2018-05-08T18:08:16.744Z,45.00
2018-05-08T18:10:44.206Z,45.61
2018-05-08T18:13:11.688Z,46.51
2018-05-08T18:15:39.168Z,46.90
2018-05-08T18:18:06.675Z,47.47
2018-05-08T18:20:34.168Z,47.64
2018-05-08T18:23:01.631Z,47.55
2018-05-08T18:25:29.090Z,47.86
2018-05-08T18:27:56.572Z,47.34
2018-05-08T18:30:24.028Z,47.68
2018-05-08T18:32:51.533Z,48.04
2018-05-08T18:35:18.997Z,48.90
2018-05-08T18:37:46.453Z,50.70
2018-05-08T18:40:14.262Z,49.81
2018-05-08T18:42:41.738Z,50.16
2018-05-08T18:45:09.227Z,50.40
2018-05-08T18:47:36.688Z,50.63
2018-05-08T18:50:04.159Z,52.04
2018-05-08T18:52:31.643Z,50.86
2018-05-08T18:54:59.110Z,50.35
2018-05-08T18:57:26.598Z,51.25
2018-05-08T18:59:54.062Z,50.85
2018-05-08T19:02:21.757Z,51.21
2018-05-08T19:04:49.271Z,51.62
2018-05-08T19:07:16.736Z,52.51
2018-05-08T19:09:44.205Z,52.68
2018-05-08T19:12:11.668Z,52.46
2018-05-08T19:14:39.228Z,53.57
2018-05-08T19:17:06.620Z,54.69
2018-05-08T19:19:39.773Z,55.08
2018-05-08T19:22:07.250Z,55.04
2018-05-08T19:24:34.728Z,55.66
2018-05-08T19:27:02.205Z,55.94
2018-05-08T19:29:35.081Z,55.52
2018-05-08T19:32:02.673Z,56.28
2018-05-08T19:34:35.529Z,56.16
2018-05-08T19:37:08.471Z,56.19
2018-05-08T19:39:35.932Z,56.10
2018-05-08T19:42:03.403Z,56.31
2018-05-08T19:44:30.866Z,55.88
2018-05-08T19:46:58.320Z,56.11
2018-05-08T19:49:25.788Z,56.71
2018-05-08T19:51:53.262Z,57.22
2018-05-08T19:54:20.758Z,57.78
2018-05-08T19:56:48.227Z,59.13
2018-05-08T19:59:15.717Z,58.79
2018-05-08T20:01:43.217Z,57.57
2018-05-08T20:04:10.680Z,58.39
2018-05-08T20:06:38.164Z,58.53
2018-05-08T20:09:05.619Z,58.86
2018-05-08T20:11:33.084Z,59.67
2018-05-08T20:14:00.571Z,59.16
2018-05-08T20:16:28.036Z,59.26
2018-05-08T20:18:55.509Z,59.56
2018-05-08T20:21:22.967Z,59.15
2018-05-08T20:23:50.453Z,59.05
2018-05-08T20:26:17.905Z,59.47
2018-05-08T20:28:45.365Z,58.99
2018-05-08T20:31:12.827Z,59.36
2018-05-08T20:33:40.299Z,59.03
2018-05-08T20:36:07.939Z,59.30
2018-05-08T20:38:35.344Z,59.52
2018-05-08T20:41:03.103Z,59.50
2018-05-08T20:43:30.573Z,60.21
2018-05-08T20:45:58.032Z,61.01
2018-05-08T20:48:25.576Z,61.31
2018-05-08T20:50:53.036Z,62.79
2018-05-08T20:53:20.515Z,63.83
2018-05-08T20:55:47.979Z,64.20
2018-05-08T20:58:15.444Z,64.71
2018-05-08T21:00:42.921Z,65.54
2018-05-08T21:03:10.371Z,67.69
2018-05-08T21:05:37.852Z,68.24
2018-05-08T21:08:05.313Z,69.25
2018-05-08T21:10:32.777Z,70.38
2018-05-08T21:13:00.261Z,70.75
2018-05-08T21:15:27.711Z,70.19
2018-05-08T21:17:55.271Z,71.15
2018-05-08T21:20:22.685Z,70.92
2018-05-08T21:22:50.139Z,70.67
2018-05-08T21:25:18.051Z,71.85
2018-05-08T21:27:51.145Z,71.95
2018-05-08T21:30:24.180Z,73.26
2018-05-08T21:32:51.585Z,74.13
2018-05-08T21:35:19.056Z,73.72
2018-05-08T21:37:46.519Z,74.20
2018-05-08T21:40:13.999Z,74.19
2018-05-08T21:42:41.464Z,74.13
2018-05-08T21:45:08.967Z,74.21
2018-05-08T21:47:36.399Z,74.75
2018-05-08T21:50:03.855Z,75.81
2018-05-08T21:52:31.320Z,75.72
2018-05-08T21:54:58.774Z,75.43
2018-05-08T21:57:26.386Z,75.13
2018-05-08T21:59:53.860Z,75.93
2018-05-08T22:02:21.325Z,76.46
2018-05-08T22:04:49.035Z,76.76
2018-05-08T22:07:16.529Z,77.78
2018-05-08T22:09:44.004Z,78.07
2018-05-08T22:12:11.461Z,79.02
2018-05-08T22:14:38.948Z,79.19
2018-05-08T22:17:06.409Z,78.86
2018-05-08T22:19:33.869Z,78.86
2018-05-08T22:22:01.335Z,80.02
2018-05-08T22:24:28.796Z,80.50
2018-05-08T22:26:56.275Z,80.91
2018-05-08T22:29:23.742Z,80.50
2018-05-08T22:31:51.205Z,81.12
2018-05-08T22:34:18.696Z,81.70
2018-05-08T22:36:46.160Z,83.16
2018-05-08T22:39:13.643Z,82.99
2018-05-08T22:41:41.102Z,83.06
2018-05-08T22:44:08.563Z,83.90
2018-05-08T22:46:36.043Z,84.59
2018-05-08T22:49:03.709Z,84.85
2018-05-08T22:51:31.184Z,84.90
2018-05-08T22:53:58.658Z,85.35
2018-05-08T22:56:26.194Z,85.60
2018-05-08T22:58:53.612Z,86.36
2018-05-08T23:01:21.080Z,86.57
2018-05-08T23:03:48.555Z,86.17
2018-05-08T23:06:16.153Z,86.47
2018-05-08T23:08:43.723Z,86.99
2018-05-08T23:11:11.140Z,87.13
2018-05-08T23:13:38.607Z,87.72
2018-05-08T23:16:06.085Z,88.16
2018-05-08T23:18:33.554Z,88.09
2018-05-08T23:21:01.228Z,88.78
2018-05-08T23:23:28.702Z,88.95
2018-05-08T23:25:56.168Z,90.04
2018-05-08T23:28:23.649Z,90.46
2018-05-08T23:30:51.129Z,90.55
2018-05-08T23:33:18.621Z,90.50
2018-05-08T23:35:46.088Z,90.85
2018-05-08T23:38:13.563Z,90.38
2018-05-08T23:40:41.055Z,91.57
2018-05-08T23:43:08.523Z,92.30
2018-05-08T23:45:36.018Z,92.80
2018-05-08T23:48:03.495Z,93.58
2018-05-08T23:50:30.963Z,94.68
2018-05-08T23:52:58.447Z,95.71
2018-05-08T23:55:25.908Z,96.08
2018-05-08T23:57:53.891Z,97.42
